sensor_id;sensor_type;location;lat;lon;timestamp;pressure;altitude;pressure_sealevel;temperature;humidity
69848;BME280;57143;55.940;37.496;2023-03-17T00:00:20;97588.75;;;1.31;100.00
69848;BME280;57143;55.940;37.496;2023-03-17T00:02:49;97603.88;;;1.44;100.00
69848;BME280;57143;55.940;37.496;2023-03-17T00:05:22;97614.56;;;1.37;100.00
69848;BME280;57143;55.940;37.496;2023-03-17T00:07:50;97621.34;;;1.33;100.00
69848;BME280;57143;55.940;37.496;2023-03-17T00:10:20;97602.34;;;1.10;100.00
69848;BME280;57143;55.940;37.496;2023-03-17T00:12:49;97606.03;;;1.09;100.00
69848;BME280;57143;55.940;37.496;2023-03-17T00:15:19;97643.94;;;1.37;100.00
69848;BME280;57143;55.940;37.496;2023-03-17T00:17:48;97640.47;;;1.24;100.00
69848;BME280;57143;55.940;37.496;2023-03-17T00:20:22;97658.31;;;1.36;100.00
69848;BME280;57143;55.940;37.496;2023-03-17T00:22:51;97651.34;;;1.29;100.00
69848;BME280;57143;55.940;37.496;2023-03-17T00:25:22;97671.06;;;1.28;100.00
69848;BME280;57143;55.940;37.496;2023-03-17T00:27:50;97688.28;;;1.32;100.00
69848;BME280;57143;55.940;37.496;2023-03-17T00:30:17;97684.81;;;1.31;100.00
69848;BME280;57143;55.940;37.496;2023-03-17T00:32:46;97691.16;;;1.30;100.00
69848;BME280;57143;55.940;37.496;2023-03-17T00:35:19;97670.22;;;1.27;100.00
69848;BME280;57143;55.940;37.496;2023-03-17T00:37:48;97704.50;;;1.30;100.00
69848;BME280;57143;55.940;37.496;2023-03-17T00:40:20;97662.47;;;0.99;100.00
69848;BME280;57143;55.940;37.496;2023-03-17T00:42:48;97706.16;;;1.11;100.00
69848;BME280;57143;55.940;37.496;2023-03-17T00:45:16;97746.59;;;1.15;100.00
69848;BME280;57143;55.940;37.496;2023-03-17T00:47:44;97747.84;;;1.19;100.00
69848;BME280;57143;55.940;37.496;2023-03-17T00:50:14;97727.72;;;1.10;100.00
69848;BME280;57143;55.940;37.496;2023-03-17T00:52:43;97748.84;;;1.11;100.00
69848;BME280;57143;55.940;37.496;2023-03-17T00:55:11;97740.22;;;1.09;100.00
69848;BME280;57143;55.940;37.496;2023-03-17T00:57:39;97745.13;;;1.12;100.00
69848;BME280;57143;55.940;37.496;2023-03-17T01:00:17;97769.34;;;1.11;100.00
69848;BME280;57143;55.940;37.496;2023-03-17T01:02:46;97758.88;;;1.16;100.00
69848;BME280;57143;55.940;37.496;2023-03-17T01:05:13;97756.03;;;1.11;100.00
69848;BME280;57143;55.940;37.496;2023-03-17T01:07:43;97778.00;;;1.06;100.00
69848;BME280;57143;55.940;37.496;2023-03-17T01:10:18;97774.69;;;1.04;100.00
69848;BME280;57143;55.940;37.496;2023-03-17T01:12:46;97775.31;;;1.06;100.00
69848;BME280;57143;55.940;37.496;2023-03-17T01:15:13;97780.25;;;0.96;100.00
69848;BME280;57143;55.940;37.496;2023-03-17T01:17:41;97793.56;;;1.09;100.00
69848;BME280;57143;55.940;37.496;2023-03-17T01:20:14;97717.66;;;0.60;100.00
69848;BME280;57143;55.940;37.496;2023-03-17T01:22:43;97805.06;;;1.03;100.00
69848;BME280;57143;55.940;37.496;2023-03-17T01:25:11;97800.97;;;1.07;100.00
69848;BME280;57143;55.940;37.496;2023-03-17T01:27:39;97813.47;;;0.94;100.00
69848;BME280;57143;55.940;37.496;2023-03-17T01:30:11;97762.31;;;0.58;100.00
69848;BME280;57143;55.940;37.496;2023-03-17T01:32:45;97844.66;;;1.00;100.00
69848;BME280;57143;55.940;37.496;2023-03-17T01:35:13;97850.19;;;0.98;100.00
69848;BME280;57143;55.940;37.496;2023-03-17T01:37:40;97868.69;;;1.06;100.00
69848;BME280;57143;55.940;37.496;2023-03-17T01:40:13;97852.44;;;0.95;100.00
69848;BME280;57143;55.940;37.496;2023-03-17T01:42:43;97876.84;;;0.98;100.00
69848;BME280;57143;55.940;37.496;2023-03-17T01:48:17;97871.13;;;1.01;100.00
69848;BME280;57143;55.940;37.496;2023-03-17T01:50:45;97902.72;;;1.04;100.00
69848;BME280;57143;55.940;37.496;2023-03-17T01:53:14;97914.19;;;0.98;100.00
69848;BME280;57143;55.940;37.496;2023-03-17T01:55:43;97919.94;;;1.02;100.00
69848;BME280;57143;55.940;37.496;2023-03-17T01:58:13;97913.38;;;0.98;100.00
69848;BME280;57143;55.940;37.496;2023-03-17T02:00:42;97917.09;;;1.03;100.00
69848;BME280;57143;55.940;37.496;2023-03-17T02:03:11;97950.09;;;0.96;100.00
69848;BME280;57143;55.940;37.496;2023-03-17T02:05:38;97949.28;;;0.95;100.00
69848;BME280;57143;55.940;37.496;2023-03-17T02:08:08;97967.50;;;0.92;100.00
69848;BME280;57143;55.940;37.496;2023-03-17T02:10:37;97972.88;;;0.98;100.00
69848;BME280;57143;55.940;37.496;2023-03-17T02:13:09;97955.22;;;0.91;100.00
69848;BME280;57143;55.940;37.496;2023-03-17T02:15:38;97968.56;;;0.97;100.00
69848;BME280;57143;55.940;37.496;2023-03-17T02:18:06;97979.84;;;0.93;100.00
69848;BME280;57143;55.940;37.496;2023-03-17T02:23:35;98004.41;;;0.88;100.00
69848;BME280;57143;55.940;37.496;2023-03-17T02:26:03;97991.88;;;0.82;100.00
69848;BME280;57143;55.940;37.496;2023-03-17T02:28:30;98019.56;;;0.81;100.00
69848;BME280;57143;55.940;37.496;2023-03-17T02:30:57;98015.25;;;0.80;100.00
69848;BME280;57143;55.940;37.496;2023-03-17T02:33:24;97996.94;;;0.71;100.00
69848;BME280;57143;55.940;37.496;2023-03-17T02:35:52;98027.13;;;0.78;100.00
69848;BME280;57143;55.940;37.496;2023-03-17T02:38:19;98030.81;;;0.77;100.00
69848;BME280;57143;55.940;37.496;2023-03-17T02:40:48;98030.22;;;0.81;100.00
69848;BME280;57143;55.940;37.496;2023-03-17T02:43:15;98038.84;;;0.83;100.00
69848;BME280;57143;55.940;37.496;2023-03-17T02:45:42;98060.22;;;0.90;100.00
69848;BME280;57143;55.940;37.496;2023-03-17T02:48:10;98049.75;;;0.88;100.00
69848;BME280;57143;55.940;37.496;2023-03-17T02:50:37;98068.00;;;0.85;100.00
69848;BME280;57143;55.940;37.496;2023-03-17T02:53:05;98056.09;;;0.81;100.00
69848;BME280;57143;55.940;37.496;2023-03-17T02:55:32;98063.50;;;0.85;100.00
69848;BME280;57143;55.940;37.496;2023-03-17T02:58:01;98048.94;;;0.88;100.00
69848;BME280;57143;55.940;37.496;2023-03-17T03:00:29;98051.78;;;0.86;100.00
69848;BME280;57143;55.940;37.496;2023-03-17T03:02:57;98049.94;;;0.87;100.00
69848;BME280;57143;55.940;37.496;2023-03-17T03:05:26;98048.94;;;0.88;100.00
69848;BME280;57143;55.940;37.496;2023-03-17T03:07:53;98049.75;;;0.88;100.00
69848;BME280;57143;55.940;37.496;2023-03-17T03:10:20;98035.00;;;0.86;100.00
69848;BME280;57143;55.940;37.496;2023-03-17T03:12:47;98034.56;;;0.82;100.00
69848;BME280;57143;55.940;37.496;2023-03-17T03:15:16;98022.44;;;0.86;100.00
69848;BME280;57143;55.940;37.496;2023-03-17T03:17:44;98006.44;;;0.86;100.00
69848;BME280;57143;55.940;37.496;2023-03-17T03:20:11;97995.75;;;0.80;100.00
69848;BME280;57143;55.940;37.496;2023-03-17T03:22:39;97985.31;;;0.78;100.00
69848;BME280;57143;55.940;37.496;2023-03-17T03:25:06;97933.63;;;0.79;100.00
69848;BME280;57143;55.940;37.496;2023-03-17T03:27:34;97742.66;;;0.85;100.00
69848;BME280;57143;55.940;37.496;2023-03-17T03:30:01;97414.22;;;0.63;100.00
69848;BME280;57143;55.940;37.496;2023-03-17T03:32:33;97382.16;;;0.76;100.00
69848;BME280;57143;55.940;37.496;2023-03-17T03:35:00;97345.22;;;0.80;100.00
69848;BME280;57143;55.940;37.496;2023-03-17T03:37:29;97328.22;;;0.74;100.00
69848;BME280;57143;55.940;37.496;2023-03-17T03:39:56;97333.38;;;0.76;100.00
69848;BME280;57143;55.940;37.496;2023-03-17T03:42:23;97296.25;;;0.74;100.00
69848;BME280;57143;55.940;37.496;2023-03-17T03:44:50;97280.69;;;0.71;100.00
69848;BME280;57143;55.940;37.496;2023-03-17T03:47:17;97298.94;;;0.68;100.00
69848;BME280;57143;55.940;37.496;2023-03-17T03:49:46;97281.13;;;0.68;100.00
69848;BME280;57143;55.940;37.496;2023-03-17T03:52:13;97269.00;;;0.72;100.00
69848;BME280;57143;55.940;37.496;2023-03-17T03:54:40;97266.91;;;0.74;100.00
69848;BME280;57143;55.940;37.496;2023-03-17T03:57:07;97260.56;;;0.75;100.00
69848;BME280;57143;55.940;37.496;2023-03-17T03:59:34;97252.78;;;0.74;100.00
69848;BME280;57143;55.940;37.496;2023-03-17T04:02:02;97247.84;;;0.77;100.00
69848;BME280;57143;55.940;37.496;2023-03-17T04:04:29;97192.63;;;0.60;100.00
69848;BME280;57143;55.940;37.496;2023-03-17T04:06:58;97190.16;;;0.83;100.00
69848;BME280;57143;55.940;37.496;2023-03-17T04:09:26;97176.88;;;0.76;100.00
69848;BME280;57143;55.940;37.496;2023-03-17T04:11:53;97182.97;;;0.83;100.00
69848;BME280;57143;55.940;37.496;2023-03-17T04:14:20;97192.03;;;0.82;100.00
69848;BME280;57143;55.940;37.496;2023-03-17T04:16:47;97199.59;;;0.85;100.00
69848;BME280;57143;55.940;37.496;2023-03-17T04:19:14;97197.75;;;0.86;100.00
69848;BME280;57143;55.940;37.496;2023-03-17T04:21:41;97218.47;;;0.84;100.00
69848;BME280;57143;55.940;37.496;2023-03-17T04:24:10;97225.19;;;0.86;100.00
69848;BME280;57143;55.940;37.496;2023-03-17T04:26:37;97219.06;;;0.86;100.00
69848;BME280;57143;55.940;37.496;2023-03-17T04:29:06;97238.53;;;0.86;100.00
69848;BME280;57143;55.940;37.496;2023-03-17T04:31:33;97257.41;;;0.91;100.00
69848;BME280;57143;55.940;37.496;2023-03-17T04:34:01;97257.41;;;0.85;100.00
69848;BME280;57143;55.940;37.496;2023-03-17T04:36:28;97252.75;;;0.80;100.00
69848;BME280;57143;55.940;37.496;2023-03-17T04:38:55;97291.22;;;0.91;100.00
69848;BME280;57143;55.940;37.496;2023-03-17T04:41:24;97269.56;;;0.81;100.00
69848;BME280;57143;55.940;37.496;2023-03-17T04:43:51;97306.19;;;0.92;100.00
69848;BME280;57143;55.940;37.496;2023-03-17T04:46:18;97314.19;;;0.92;100.00
69848;BME280;57143;55.940;37.496;2023-03-17T04:48:45;97330.19;;;0.92;100.00
69848;BME280;57143;55.940;37.496;2023-03-17T04:51:12;97330.78;;;0.94;100.00
69848;BME280;57143;55.940;37.496;2023-03-17T04:53:39;97348.50;;;1.13;100.00
69848;BME280;57143;55.940;37.496;2023-03-17T04:56:07;97363.69;;;1.12;100.00
69848;BME280;57143;55.940;37.496;2023-03-17T04:58:36;97364.25;;;1.21;100.00
69848;BME280;57143;55.940;37.496;2023-03-17T05:01:03;97389.69;;;1.24;100.00
69848;BME280;57143;55.940;37.496;2023-03-17T05:03:32;97404.25;;;1.28;100.00
69848;BME280;57143;55.940;37.496;2023-03-17T05:05:59;97422.31;;;1.26;100.00
69848;BME280;57143;55.940;37.496;2023-03-17T05:08:27;97440.50;;;1.35;100.00
69848;BME280;57143;55.940;37.496;2023-03-17T05:10:54;97455.69;;;1.66;100.00
69848;BME280;57143;55.940;37.496;2023-03-17T05:13:22;97446.56;;;2.04;100.00
69848;BME280;57143;55.940;37.496;2023-03-17T05:15:52;97466.03;;;2.11;100.00
69848;BME280;57143;55.940;37.496;2023-03-17T05:18:21;97528.16;;;2.00;100.00
69848;BME280;57143;55.940;37.496;2023-03-17T05:20:49;97547.44;;;2.33;100.00
69848;BME280;57143;55.940;37.496;2023-03-17T05:23:16;97553.94;;;2.69;100.00
69848;BME280;57143;55.940;37.496;2023-03-17T05:25:43;97550.72;;;3.03;100.00
69848;BME280;57143;55.940;37.496;2023-03-17T05:28:11;97561.81;;;3.72;100.00
69848;BME280;57143;55.940;37.496;2023-03-17T05:30:38;97584.16;;;3.48;100.00
69848;BME280;57143;55.940;37.496;2023-03-17T05:33:07;97610.13;;;3.95;100.00
69848;BME280;57143;55.940;37.496;2023-03-17T05:35:34;97638.69;;;3.72;100.00
69848;BME280;57143;55.940;37.496;2023-03-17T05:38:01;97658.69;;;3.51;100.00
69848;BME280;57143;55.940;37.496;2023-03-17T05:40:29;97670.97;;;2.98;100.00
69848;BME280;57143;55.940;37.496;2023-03-17T05:42:56;97701.91;;;2.87;100.00
69848;BME280;57143;55.940;37.496;2023-03-17T05:45:23;97702.38;;;2.53;100.00
69848;BME280;57143;55.940;37.496;2023-03-17T05:47:50;97697.81;;;2.60;100.00
69848;BME280;57143;55.940;37.496;2023-03-17T05:50:19;97788.03;;;2.27;100.00
69848;BME280;57143;55.940;37.496;2023-03-17T05:52:46;97809.88;;;2.62;100.00
69848;BME280;57143;55.940;37.496;2023-03-17T05:55:13;97875.13;;;3.36;100.00
69848;BME280;57143;55.940;37.496;2023-03-17T05:57:42;97935.47;;;3.63;100.00
69848;BME280;57143;55.940;37.496;2023-03-17T06:00:10;98021.50;;;3.80;100.00
69848;BME280;57143;55.940;37.496;2023-03-17T06:02:37;98102.28;;;3.83;100.00
69848;BME280;57143;55.940;37.496;2023-03-17T06:05:05;98212.66;;;3.61;100.00
69848;BME280;57143;55.940;37.496;2023-03-17T06:07:35;98273.66;;;3.00;100.00
69848;BME280;57143;55.940;37.496;2023-03-17T06:10:02;98333.75;;;3.04;100.00
69848;BME280;57143;55.940;37.496;2023-03-17T06:12:30;98352.94;;;3.27;100.00
69848;BME280;57143;55.940;37.496;2023-03-17T06:14:57;98385.91;;;3.47;100.00
69848;BME280;57143;55.940;37.496;2023-03-17T06:17:24;98444.50;;;3.89;100.00
69848;BME280;57143;55.940;37.496;2023-03-17T06:19:52;98500.34;;;3.73;100.00
69848;BME280;57143;55.940;37.496;2023-03-17T06:22:19;98516.38;;;3.60;100.00
69848;BME280;57143;55.940;37.496;2023-03-17T06:24:47;98540.34;;;3.74;100.00
69848;BME280;57143;55.940;37.496;2023-03-17T06:27:14;98566.59;;;4.24;100.00
69848;BME280;57143;55.940;37.496;2023-03-17T06:29:42;98583.50;;;4.25;100.00
69848;BME280;57143;55.940;37.496;2023-03-17T06:32:09;98628.66;;;4.15;100.00
69848;BME280;57143;55.940;37.496;2023-03-17T06:34:39;98633.25;;;3.67;100.00
69848;BME280;57143;55.940;37.496;2023-03-17T06:37:07;98668.66;;;4.03;100.00
69848;BME280;57143;55.940;37.496;2023-03-17T06:39:34;98701.69;;;4.17;100.00
69848;BME280;57143;55.940;37.496;2023-03-17T06:42:04;98722.16;;;3.84;100.00
69848;BME280;57143;55.940;37.496;2023-03-17T06:44:31;98753.97;;;3.59;100.00
69848;BME280;57143;55.940;37.496;2023-03-17T06:46:58;98755.19;;;3.57;100.00
69848;BME280;57143;55.940;37.496;2023-03-17T06:49:25;98741.31;;;3.74;100.00
69848;BME280;57143;55.940;37.496;2023-03-17T06:51:52;98752.66;;;3.76;100.00
69848;BME280;57143;55.940;37.496;2023-03-17T06:54:20;98764.84;;;4.26;100.00
69848;BME280;57143;55.940;37.496;2023-03-17T06:56:49;98757.59;;;5.13;100.00
69848;BME280;57143;55.940;37.496;2023-03-17T06:59:18;98764.84;;;5.25;100.00
69848;BME280;57143;55.940;37.496;2023-03-17T07:01:45;98844.66;;;5.64;100.00
69848;BME280;57143;55.940;37.496;2023-03-17T07:04:13;98896.09;;;5.35;100.00
69848;BME280;57143;55.940;37.496;2023-03-17T07:06:40;98948.66;;;4.56;100.00
69848;BME280;57143;55.940;37.496;2023-03-17T07:09:09;98947.97;;;4.47;100.00
69848;BME280;57143;55.940;37.496;2023-03-17T07:11:36;99000.09;;;4.11;100.00
69848;BME280;57143;55.940;37.496;2023-03-17T07:14:03;98984.88;;;3.90;100.00
69848;BME280;57143;55.940;37.496;2023-03-17T07:16:32;98952.22;;;3.38;100.00
69848;BME280;57143;55.940;37.496;2023-03-17T07:18:59;98973.31;;;3.26;100.00
69848;BME280;57143;55.940;37.496;2023-03-17T07:21:27;98993.34;;;3.16;100.00
69848;BME280;57143;55.940;37.496;2023-03-17T07:23:54;98965.88;;;3.43;100.00
69848;BME280;57143;55.940;37.496;2023-03-17T07:26:21;98968.56;;;3.43;100.00
69848;BME280;57143;55.940;37.496;2023-03-17T07:28:49;98972.75;;;3.31;100.00
69848;BME280;57143;55.940;37.496;2023-03-17T07:31:16;98968.09;;;3.04;100.00
69848;BME280;57143;55.940;37.496;2023-03-17T07:33:45;98974.72;;;3.22;100.00
69848;BME280;57143;55.940;37.496;2023-03-17T07:36:12;98959.28;;;3.24;100.00
69848;BME280;57143;55.940;37.496;2023-03-17T07:38:40;98961.28;;;3.01;100.00
69848;BME280;57143;55.940;37.496;2023-03-17T07:41:08;98944.59;;;2.85;100.00
69848;BME280;57143;55.940;37.496;2023-03-17T07:43:35;98918.47;;;2.87;100.00
69848;BME280;57143;55.940;37.496;2023-03-17T07:46:04;98905.13;;;2.72;100.00
69848;BME280;57143;55.940;37.496;2023-03-17T07:48:31;98865.47;;;2.76;100.00
69848;BME280;57143;55.940;37.496;2023-03-17T07:51:00;98887.25;;;2.44;100.00
69848;BME280;57143;55.940;37.496;2023-03-17T07:53:27;98857.06;;;2.64;100.00
69848;BME280;57143;55.940;37.496;2023-03-17T07:55:54;98863.44;;;2.99;100.00
69848;BME280;57143;55.940;37.496;2023-03-17T07:58:21;98852.88;;;2.76;100.00
69848;BME280;57143;55.940;37.496;2023-03-17T08:00:49;98887.50;;;3.34;100.00
69848;BME280;57143;55.940;37.496;2023-03-17T08:03:16;98885.69;;;3.63;100.00
69848;BME280;57143;55.940;37.496;2023-03-17T08:05:43;98904.97;;;4.00;100.00
69848;BME280;57143;55.940;37.496;2023-03-17T08:08:13;98938.69;;;3.88;100.00
69848;BME280;57143;55.940;37.496;2023-03-17T08:10:40;98967.28;;;3.60;100.00
69848;BME280;57143;55.940;37.496;2023-03-17T08:13:07;98980.91;;;4.07;100.00
69848;BME280;57143;55.940;37.496;2023-03-17T08:15:34;99002.34;;;4.07;100.00
69848;BME280;57143;55.940;37.496;2023-03-17T08:18:02;99039.13;;;4.34;100.00
69848;BME280;57143;55.940;37.496;2023-03-17T08:20:29;99092.31;;;3.53;100.00
69848;BME280;57143;55.940;37.496;2023-03-17T08:22:56;99091.72;;;3.72;100.00
69848;BME280;57143;55.940;37.496;2023-03-17T08:25:25;99113.66;;;3.46;100.00
69848;BME280;57143;55.940;37.496;2023-03-17T08:27:52;99081.00;;;4.14;100.00
69848;BME280;57143;55.940;37.496;2023-03-17T08:30:20;99110.84;;;4.74;100.00
69848;BME280;57143;55.940;37.496;2023-03-17T08:32:47;99142.88;;;4.76;100.00
69848;BME280;57143;55.940;37.496;2023-03-17T08:35:15;99125.41;;;5.14;100.00
69848;BME280;57143;55.940;37.496;2023-03-17T08:37:43;99195.16;;;4.59;100.00
69848;BME280;57143;55.940;37.496;2023-03-17T08:40:12;99203.13;;;4.31;100.00
69848;BME280;57143;55.940;37.496;2023-03-17T08:42:44;99249.53;;;3.96;100.00
69848;BME280;57143;55.940;37.496;2023-03-17T08:45:12;99274.84;;;3.65;100.00
69848;BME280;57143;55.940;37.496;2023-03-17T08:47:40;99265.63;;;3.96;100.00
69848;BME280;57143;55.940;37.496;2023-03-17T08:50:10;99269.78;;;3.84;100.00
69848;BME280;57143;55.940;37.496;2023-03-17T08:52:41;99288.88;;;3.52;100.00
69848;BME280;57143;55.940;37.496;2023-03-17T08:55:08;99270.25;;;3.88;100.00
69848;BME280;57143;55.940;37.496;2023-03-17T08:57:35;99286.78;;;3.91;100.00
69848;BME280;57143;55.940;37.496;2023-03-17T09:00:05;99298.69;;;3.89;100.00
69848;BME280;57143;55.940;37.496;2023-03-17T09:02:36;99335.59;;;4.16;100.00
69848;BME280;57143;55.940;37.496;2023-03-17T09:05:04;99336.03;;;3.90;100.00
69848;BME280;57143;55.940;37.496;2023-03-17T09:07:32;99387.00;;;4.05;100.00
69848;BME280;57143;55.940;37.496;2023-03-17T09:09:59;99405.28;;;3.87;100.00
69848;BME280;57143;55.940;37.496;2023-03-17T09:12:29;99427.19;;;3.90;100.00
69848;BME280;57143;55.940;37.496;2023-03-17T09:14:56;99429.84;;;3.76;100.00
69848;BME280;57143;55.940;37.496;2023-03-17T09:17:25;99465.53;;;3.76;100.00
69848;BME280;57143;55.940;37.496;2023-03-17T09:19:52;99480.22;;;3.80;100.00
69848;BME280;57143;55.940;37.496;2023-03-17T09:22:20;99481.72;;;3.83;100.00
69848;BME280;57143;55.940;37.496;2023-03-17T09:24:47;99483.47;;;3.90;100.00
69848;BME280;57143;55.940;37.496;2023-03-17T09:27:14;99497.22;;;4.10;100.00
69848;BME280;57143;55.940;37.496;2023-03-17T09:29:41;99511.06;;;3.99;100.00
69848;BME280;57143;55.940;37.496;2023-03-17T09:32:08;99525.00;;;3.94;100.00
69848;BME280;57143;55.940;37.496;2023-03-17T09:34:37;99508.94;;;4.31;100.00
69848;BME280;57143;55.940;37.496;2023-03-17T09:37:04;99499.59;;;4.27;100.00
69848;BME280;57143;55.940;37.496;2023-03-17T09:39:31;99537.31;;;4.26;100.00
69848;BME280;57143;55.940;37.496;2023-03-17T09:42:16;99525.03;;;4.31;100.00
69848;BME280;57143;55.940;37.496;2023-03-17T09:45:02;99542.53;;;4.42;100.00
69848;BME280;57143;55.940;37.496;2023-03-17T09:47:47;99578.16;;;4.36;100.00
69848;BME280;57143;55.940;37.496;2023-03-17T09:50:23;99587.91;;;4.51;100.00
69848;BME280;57143;55.940;37.496;2023-03-17T09:52:51;99604.00;;;4.51;100.00
69848;BME280;57143;55.940;37.496;2023-03-17T09:55:25;99620.00;;;4.22;100.00
69848;BME280;57143;55.940;37.496;2023-03-17T09:57:54;99646.63;;;4.01;100.00
69848;BME280;57143;55.940;37.496;2023-03-17T10:00:24;99678.88;;;3.85;100.00
69848;BME280;57143;55.940;37.496;2023-03-17T10:02:54;99639.22;;;3.81;100.00
69848;BME280;57143;55.940;37.496;2023-03-17T10:05:25;99705.19;;;3.90;100.00
69848;BME280;57143;55.940;37.496;2023-03-17T10:08:00;99713.13;;;4.06;100.00
69848;BME280;57143;55.940;37.496;2023-03-17T10:10:33;99704.72;;;4.39;100.00
69848;BME280;57143;55.940;37.496;2023-03-17T10:13:08;99722.31;;;4.42;100.00
69848;BME280;57143;55.940;37.496;2023-03-17T10:15:44;99756.09;;;4.28;100.00
69848;BME280;57143;55.940;37.496;2023-03-17T10:18:14;99794.25;;;4.16;100.00
69848;BME280;57143;55.940;37.496;2023-03-17T10:20:48;99698.00;;;4.43;100.00
69848;BME280;57143;55.940;37.496;2023-03-17T10:23:19;99682.72;;;4.44;100.00
69848;BME280;57143;55.940;37.496;2023-03-17T10:25:47;99688.94;;;4.44;100.00
69848;BME280;57143;55.940;37.496;2023-03-17T10:28:23;99709.03;;;4.18;100.00
69848;BME280;57143;55.940;37.496;2023-03-17T10:30:52;99792.22;;;4.48;100.00
69848;BME280;57143;55.940;37.496;2023-03-17T10:33:19;99833.38;;;4.33;100.00
69848;BME280;57143;55.940;37.496;2023-03-17T10:35:48;99833.81;;;4.14;100.00
69848;BME280;57143;55.940;37.496;2023-03-17T10:38:17;99906.38;;;4.20;100.00
69848;BME280;57143;55.940;37.496;2023-03-17T10:40:46;99902.19;;;4.10;100.00
69848;BME280;57143;55.940;37.496;2023-03-17T10:43:18;99957.84;;;4.16;100.00
69848;BME280;57143;55.940;37.496;2023-03-17T10:45:54;99986.16;;;4.02;100.00
69848;BME280;57143;55.940;37.496;2023-03-17T10:48:23;100057.75;;;4.34;97.91
69848;BME280;57143;55.940;37.496;2023-03-17T10:50:55;100079.03;;;4.35;96.05
69848;BME280;57143;55.940;37.496;2023-03-17T10:53:25;100095.31;;;4.34;92.99
69848;BME280;57143;55.940;37.496;2023-03-17T10:55:56;100101.50;;;4.26;90.87
69848;BME280;57143;55.940;37.496;2023-03-17T10:58:36;100141.41;;;4.21;91.11
69848;BME280;57143;55.940;37.496;2023-03-17T11:01:06;100179.50;;;4.41;89.54
69848;BME280;57143;55.940;37.496;2023-03-17T11:03:37;100186.53;;;4.42;88.21
69848;BME280;57143;55.940;37.496;2023-03-17T11:06:08;100179.00;;;4.53;87.84
69848;BME280;57143;55.940;37.496;2023-03-17T11:08:38;100190.88;;;4.19;82.54
69848;BME280;57143;55.940;37.496;2023-03-17T11:11:09;100222.75;;;4.30;83.23
69848;BME280;57143;55.940;37.496;2023-03-17T11:13:36;100201.63;;;4.27;81.61
69848;BME280;57143;55.940;37.496;2023-03-17T11:16:09;100237.34;;;4.27;78.06
69848;BME280;57143;55.940;37.496;2023-03-17T11:18:42;100260.97;;;4.24;75.11
69848;BME280;57143;55.940;37.496;2023-03-17T11:21:15;100270.19;;;4.21;74.01
69848;BME280;57143;55.940;37.496;2023-03-17T11:23:48;100236.97;;;4.14;75.67
69848;BME280;57143;55.940;37.496;2023-03-17T11:26:30;100274.22;;;4.25;73.02
69848;BME280;57143;55.940;37.496;2023-03-17T11:29:11;100295.41;;;4.36;71.39
69848;BME280;57143;55.940;37.496;2023-03-17T11:31:50;100302.28;;;4.47;71.64
69848;BME280;57143;55.940;37.496;2023-03-17T11:34:29;100266.00;;;4.19;69.92
69848;BME280;57143;55.940;37.496;2023-03-17T11:37:03;100268.19;;;4.23;70.06
69848;BME280;57143;55.940;37.496;2023-03-17T11:39:39;100310.19;;;4.48;69.74
69848;BME280;57143;55.940;37.496;2023-03-17T11:42:14;100318.91;;;4.50;67.75
69848;BME280;57143;55.940;37.496;2023-03-17T11:44:58;100295.69;;;4.25;67.20
69848;BME280;57143;55.940;37.496;2023-03-17T11:47:50;100321.22;;;4.45;67.74
69848;BME280;57143;55.940;37.496;2023-03-17T11:50:26;100321.88;;;4.31;65.18
69848;BME280;57143;55.940;37.496;2023-03-17T11:53:08;100342.00;;;4.35;64.74
69848;BME280;57143;55.940;37.496;2023-03-17T11:55:42;100340.84;;;4.38;65.11
69848;BME280;57143;55.940;37.496;2023-03-17T11:58:14;100329.09;;;4.39;66.15
69848;BME280;57143;55.940;37.496;2023-03-17T12:00:45;100333.66;;;4.46;65.62
69848;BME280;57143;55.940;37.496;2023-03-17T12:03:19;100338.00;;;4.47;67.28
69848;BME280;57143;55.940;37.496;2023-03-17T12:05:52;100323.88;;;4.29;64.31
69848;BME280;57143;55.940;37.496;2023-03-17T12:08:28;100337.13;;;4.31;64.49
69848;BME280;57143;55.940;37.496;2023-03-17T12:11:05;100336.16;;;4.40;68.07
69848;BME280;57143;55.940;37.496;2023-03-17T12:13:36;100338.69;;;4.41;67.08
69848;BME280;57143;55.940;37.496;2023-03-17T12:16:08;100327.72;;;4.35;66.69
69848;BME280;57143;55.940;37.496;2023-03-17T12:18:38;100344.06;;;4.41;66.68
69848;BME280;57143;55.940;37.496;2023-03-17T12:21:12;100345.03;;;4.40;66.03
69848;BME280;57143;55.940;37.496;2023-03-17T12:23:47;100344.41;;;4.46;65.08
69848;BME280;57143;55.940;37.496;2023-03-17T12:26:16;100328.06;;;4.24;62.47
69848;BME280;57143;55.940;37.496;2023-03-17T12:28:48;100334.56;;;4.21;61.02
69848;BME280;57143;55.940;37.496;2023-03-17T12:31:20;100330.84;;;4.14;62.01
69848;BME280;57143;55.940;37.496;2023-03-17T12:33:55;100340.00;;;4.37;64.41
69848;BME280;57143;55.940;37.496;2023-03-17T12:36:25;100366.16;;;4.35;63.84
69848;BME280;57143;55.940;37.496;2023-03-17T12:38:57;100374.69;;;4.31;63.63
69848;BME280;57143;55.940;37.496;2023-03-17T12:44:28;100363.31;;;4.37;63.11
69848;BME280;57143;55.940;37.496;2023-03-17T12:47:11;100365.69;;;4.40;63.93
69848;BME280;57143;55.940;37.496;2023-03-17T12:50:13;100349.16;;;4.19;63.44
69848;BME280;57143;55.940;37.496;2023-03-17T12:52:55;100343.97;;;4.17;64.52
69848;BME280;57143;55.940;37.496;2023-03-17T12:55:30;100386.63;;;4.36;63.53
69848;BME280;57143;55.940;37.496;2023-03-17T12:57:59;100372.94;;;4.14;61.83
69848;BME280;57143;55.940;37.496;2023-03-17T13:00:29;100368.25;;;4.16;61.42
69848;BME280;57143;55.940;37.496;2023-03-17T13:03:15;100383.50;;;4.15;60.86
69848;BME280;57143;55.940;37.496;2023-03-17T13:05:45;100280.13;;;3.53;59.93
69848;BME280;57143;55.940;37.496;2023-03-17T13:08:17;100393.59;;;4.21;59.37
69848;BME280;57143;55.940;37.496;2023-03-17T13:10:49;100394.06;;;4.17;61.01